Terminal Aerodrome Forecast
Issued by NWS

Home | Current Version | Previous Version | Text Only | Print | Product List | Glossary On
Versions: 1 2 3 4 5 6 7 8 9 10 11 12 13 14 15
257
FTUS44 KBMX 212333
TAFTOI
TAF
KTOI 212333Z 2200/2224 08006KT P6SM BKN050
     FM220400 09009KT P6SM OVC025
     FM220600 10010KT P6SM VCSH OVC012
     FM221000 11010KT 6SM SHRA OVC012
     FM221700 13013G20KT 5SM SHRA SCT008 OVC020 PROB30 2218/2224 2SM
      TSRA BKN007 OVC012CB=

USA.gov is the U.S. government's official web portal to all federal, state and local government web resources and services.